Soaring Guidance
Issued by NWS Reno, NV

Home | Current Version | Previous Version | Text Only | Print | Product List | Glossary On
Versions: 1 2 3 4 5 6 7 8 9 10 11 12
000
UXUS97 KREV 101524
SRGREV

SOARING FORECAST
NATIONAL WEATHER SERVICE - RENO NV
700 AM PST SAT DEC 10 2016

THIS SOARING FORECAST IS FOR THE EASTERN SIERRA AND WESTERN NEVADA
WITH SPECIFIC INDICES FOR THE GREATER RENO AREA.

THIS FORECAST IS PREPARED DAILY BY 700 AM AND IS NOT UPDATED.

FOR CURRENT FLIGHT CONDITIONS...FORECASTS...AND ADVISORIES...ACCESS
YOUR LOCAL BRIEFING OUTLET OR FLIGHT SERVICE STATION.

*******************************************************************
FORECASTED LOCAL INDICES FOR RENO:        TODAY     YESTERDAY
FORECASTED MAX TEMP AT RENO (DEG F).....     58          61
FORECASTED TRIGGER TEMPERATURE (DEG F)..     57          52
   EXCEEDED YESTERDAY BY 955 AM PST
FORECASTED MAXIMUM ALTITUDE (FT MSL)....   9300       11200
FORECASTED SOARING INDEX (FPM)..........    369         516
FORECASTED K-INDEX.........VALID 18Z....     27          MM
FORECASTED K-INDEX.........VALID 00Z....     28          MM
FORECASTED LIFTED INDEX....VALID 18Z....      2          MM
FORECASTED LIFTED INDEX....VALID 00Z....      3          MM

AFTERNOON WINDS ALOFT FORECAST
MSL (FT) WIND/TEMP
9000  2647/+00
10000 2650/-01
12000 2657/-04
14000 2661/-07
16000 2665/-11
18000 2778/-15
24000 2789/-25
30000 2799/-42
34000 7817/-52
39000 7817/-62

SLIDE MOUNTAIN DATA:
     DATE       TIME     TEMP  DEWPT   RH         WIND (MPH)
                        (F)   (F)           | DIR  SPEED GUST
2016-12-10    05:20      30    30    100    | 127   13   16
2016-12-10    05:00      31    31    100    | 129   13   16
2016-12-10    04:50      31    31    100    | 129   11   14
2016-12-10    04:30      31    31    100    | 131   12   16

RENO TAF FORECAST:
KRNO 101129Z 1012/1112 25014G22KT P6SM -RA SCT030 BKN045
      WS020/25045KT
     FM101400 25014G32KT 5SM RA BR SCT020 BKN035
     FM101800 27018G29KT P6SM -SHRA SCT025 BKN040
     FM110200 30011G18KT P6SM -SHRA SCT025 BKN040
     FM110600 33011G18KT P6SM VCSH SCT050 BKN080

CARSON CITY TAF FORECAST:
KCXP 101129Z 1012/1112 23020G30KT 3SM RA BR SCT015 BKN030
      WS020/25045KT
     FM101900 24014G27KT P6SM -SHRA SCT025 BKN035
     FM110300 25010G16KT P6SM -SHRA SCT025 BKN035
     FM110700 33011G18KT P6SM VCSH SCT050 BKN080

OUTLOOK FOR THE RENO-CARSON CITY-MINDEN AREA:
.SUNDAY...MOSTLY CLOUDY. SLIGHT CHANCE OF RAIN IN THE MORNING.
HIGHS 47 TO 52. SOUTHWEST WINDS 10 TO 15 MPH. GUSTS UP TO 35 MPH
IN THE AFTERNOON.

SUNRISE AND SUNSET
DECEMBER 10 2016......SUNRISE   709 AM PST   SUNSET   435 PM PST
DECEMBER 11 2016......SUNRISE   710 AM PST   SUNSET   436 PM PST


USA.gov is the U.S. government's official web portal to all federal, state and local government web resources and services.